AirNav   Air Wisconsin pilot careers
 
 1538 users online  

CO82 Land Airport
Keenesburg, Colorado, USA

GOING TO KEENESBURG?


FAA INFORMATION EFFECTIVE 23 MAY 2019

Location

FAA Identifier: CO82
Lat/Long: 40-05-44.9370N / 104-35-21.8620W
40-05.748950N / 104-35.364367W
40.0958158 / -104.5894061
(estimated)
Elevation: 5000 ft. / 1524 m (estimated)
Variation: 11E (1985)
From city: 3 miles W of KEENESBURG, CO
Time zone: UTC -6 (UTC -7 during Standard Time)
Zip code: 80642

Airport Operations

Airport use: Private use. Permission required prior to landing
Control tower: no
ARTCC: DENVER CENTER
FSS: DENVER FLIGHT SERVICE STATION
Attendance: UNATNDD
Wind indicator: yes
Segmented circle: no

Airport Communications

WX ASOS at DEN (15 nm S): PHONE 303-342-0838
WX AWOS-3 at FTG (19 nm S): 119.025 (303-261-9104)

Nearby radio navigation aids

VOR radial/distance  VOR name  Freq  Var
DVVr360/12.2MILE HIGH VORTAC114.7008E
DENr003/17.3DENVER VOR/DME117.9008E
FQFr352/24.4FALCON VORTAC116.3011E
GLLr171/24.5GILL VOR/DME114.2013E
BJCr056/27.5JEFFCO VOR/DME115.4011E

Airport Services

Airframe service: NONE
Powerplant service: NONE

Runway Information

Runway 17/35

Dimensions: 3000 x 30 ft. / 914 x 9 m
Surface: asphalt
RUNWAY 17  RUNWAY 35
Traffic pattern: leftleft
Markings: basic
Obstructions: pline, 500 ft. from runwaynone

Runway 8/26

Dimensions: 1200 x 20 ft. / 366 x 6 m
Surface: concrete
RUNWAY 8  RUNWAY 26
Traffic pattern: leftleft
Obstructions: 100 ft. pline, 300 ft. from runway30 ft. pline, 75 ft. from runway

Airport Ownership and Management from official FAA records

Ownership: Privately-owned
Owner: LLOYD LAND
6511 WELD CO RD 51
KEENSBURG, CO 80643
Phone 303-536-0810
Manager: LLOYD LAND
6511 WELD CO RD 51
KEENSBURG, CO 80643
Phone 303-536-0810

Airport Operational Statistics

Aircraft based on the field: 7
Single engine airplanes: 7
    

Additional Remarks

BLDGS LOCATED MIDFIELD BETWEEN RYS 08/26 & 17/35.

Instrument Procedures

There are no published instrument procedures at CO82.

Some nearby airports with instrument procedures:

KDEN - Denver International Airport (15 nm S)
KFTG - Front Range Airport (19 nm S)
KGXY - Greeley-Weld County Airport (21 nm N)
KEIK - Erie Municipal Airport (22 nm W)
KBKF - Buckley Air Force Base (25 nm S)
 
Loc | Ops | Rwys | IFR | FBO | Links
Com | Nav | Svcs | Stats | Notes

AirBoss

 
Area around CO82 (Land Airport)
 
Road maps at: MapQuest Bing Google
 
Aerial photo
No photo
 
Sectional chart

 
Airport distance calculator
Flying to Land Airport? Find the distance to fly.

From to CO82

Sunrise and sunset
Times for 17-Jun-2019
 Local
(UTC-6)
 Zulu
(UTC)
Morning civil twilight04:5710:57
Sunrise05:3011:30
Sunset20:2902:29
Evening civil twilight21:0203:02

Current date and time
Zulu (UTC)  17-Jun-2019 19:10:58
Local (UTC-6)  17-Jun-2019 13:10:58
 
METAR
CO82 SuperAWOS
171835Z AUTO VRB04KT 10SM 23/14 A3006
KDEN 
16nm S 
171853Z VRB05KT 10SM SCT030 BKN100 BKN220 22/11 A3009 RMK AO2 SLP126 T02170111
KFTG 
19nm S 
171858Z VRB05KT 10SM BKN023 BKN032 BKN100 20/13 A3011
KGXY 
19nm N 
171856Z AUTO 04008KT 10SM CLR 23/11 A3006 RMK AO2 SLP147 T02330106
TAF
KDEN 
16nm S 
171740Z 1718/1824 33005KT P6SM FEW020 BKN100 FM172000 08010KT P6SM VCTS FEW060CB BKN110 TEMPO 1721/1724 VRB20G32KT TSRA BKN050CB FM180000 36006KT P6SM VCTS SCT060CB BKN110 TEMPO 1801/1804 -TSRA BKN060CB FM180500 08007KT P6SM SCT025 OVC040 FM180900 12006KT 3SM BR BKN015 OVC090 FM181700 33006KT P6SM VCSH SCT030 BKN090 TEMPO 1820/1824 -TSRA BKN030CB
NOTAMs
Click for the latest NOTAMs
NOTAMs are issued by the DoD/FAA and will open in a separate window not controlled by AirNav.

 

 
 

Would you like to see your business listed on this page?

 If your business provides an interesting product or service to pilots, flight crews, aircraft, or users of the Land Airport, you should consider listing it here.  To start the listing process, click on the button below
 
Add a business
 

Other Pages about Land Airport

Update a link
 
Copyright © AirNav, LLC. All rights reserved. Privacy Policy  Contact